Flight Track Log - Related Links

Times and Time Zones

All times are in EDT time to prevent confusion due to time zone crossing. See the UAL1169 flight status page for this flight to view local times or setup timezone preferences in your user account.

Time Position Orientation Groundspeed Altitude Reporting Facility
EDT Latitude Longitude Course Direction KTS MPH feet Rate Location/Type
Sun 10:30:48 AM 29.9531 -95.3422 276° West 209 241 900  Level Houston Center
Sun 10:31:31 AM 29.9214 -95.3606 207° Southwest 214 246 1,900 1,655 Climbing Houston Center
Sun 10:32:15 AM 29.9278 -95.4042 280° West 232 267 3,300 2,114 Climbing Houston Center
Sun 10:33:00 AM 30.0284 -95.7508 277° West  Level FlightAware Approximate
Sun 10:33:16 AM 29.9461 -95.4836 285° West 253 291 5,600  Level Houston Center
Sun 10:34:00 AM 30.0410 -95.8909 276° West  Level FlightAware Approximate
Sun 10:34:18 AM 29.9656 -95.5711 284° West 274 315 8,400  Level Houston Center
Sun 10:35:00 AM 30.0597 -96.0292 291° West  Level FlightAware Approximate
Sun 10:35:20 AM 29.9892 -95.6803 284° West 289 333 10,600  Level Houston Center
Sun 10:36:00 AM 30.0774 -96.1680 276° West  Level FlightAware Approximate
Sun 10:36:22 AM 30.0131 -95.7914 284° West 353 406 11,900  Level Houston Center
Sun 10:37:24 AM 30.0381 -95.9094 284° West 378 435 14,200 2,323 Climbing Houston Center
Sun 10:38:26 AM 30.0656 -96.0422 283° West 384 442 16,700 2,226 Climbing Houston Center
Sun 10:39:28 AM 30.0872 -96.1661 281° West 393 452 18,800 1,645 Climbing Houston Center
Sun 10:40:30 AM 30.1056 -96.2925 280° West 402 463 20,100 1,500 Climbing Houston Center
Sun 10:41:32 AM 30.1281 -96.4419 280° West 422 486 21,900 1,415 Climbing Houston Center
Sun 10:42:33 AM 30.1489 -96.5806 280° West 431 496 23,000 1,512 Climbing Houston Center
Sun 10:43:35 AM 30.1711 -96.7208 280° West 440 506 25,000 1,790 Climbing Houston Center
Sun 10:44:37 AM 30.1908 -96.8619 279° West 440 506 26,700 1,500 Climbing Houston Center
Sun 10:45:39 AM 30.2131 -97.0019 280° West 437 503 28,100 1,016 Climbing Houston Center
Sun 10:46:41 AM 30.2339 -97.1469 279° West 448 516 28,800 726 Climbing Houston Center
Sun 10:47:43 AM 30.2567 -97.2981 280° West 466 536 29,600 1,065 Climbing Houston Center
Sun 10:48:45 AM 30.2781 -97.4503 279° West 473 544 31,000 1,122 Climbing Houston Center
Sun 10:49:46 AM 30.2994 -97.6019 279° West 471 542 31,900 927 Climbing Houston Center
Sun 10:50:48 AM 30.3222 -97.7572 280° West 479 551 32,900 1,016 Climbing Houston Center
Sun 10:51:50 AM 30.3472 -97.9356 279° West 478 550 34,000 629 Climbing Houston Center
Sun 10:52:52 AM 30.3692 -98.0917 279° West 480 552 34,200 581 Climbing Houston Center
Sun 10:53:54 AM 30.3922 -98.2453 280° West 481 554 35,200 871 Climbing Houston Center
Sun 10:54:56 AM 30.4297 -98.3914 287° West 471 542 36,000 387 Climbing Houston Center
Sun 10:55:58 AM 30.4686 -98.5356 287° West 465 535 36,000  Level Houston Center
Sun 10:57:00 AM 30.5083 -98.6792 288° West 464 534 36,000  Level Houston Center
Sun 10:58:01 AM 30.5478 -98.8236 288° West 464 534 36,000  Level Houston Center
Sun 10:59:03 AM 30.5889 -98.9692 288° West 468 539 36,000  Level Houston Center
Sun 11:00:05 AM 30.6281 -99.1131 288° West 464 534 36,000  Level Houston Center
Sun 11:01:07 AM 30.6664 -99.2553 287° West 463 533 36,000  Level Houston Center
Sun 11:02:09 AM 30.7125 -99.4256 288° West 463 533 36,000  Level Houston Center
Sun 11:03:11 AM 30.7492 -99.5672 287° West 462 532 36,000  Level Houston Center
Sun 11:04:13 AM 30.7872 -99.7100 287° West 464 534 36,000  Level Houston Center
Sun 11:05:15 AM 30.8244 -99.8528 287° West 466 536 36,000  Level Houston Center
Sun 11:06:17 AM 30.8611 -99.9944 287° West 461 531 36,000  Level Houston Center
Sun 11:07:18 AM 30.8986 -100.1372 287° West 463 533 36,000  Level Houston Center
Sun 11:08:20 AM 30.9425 -100.3075 287° West 460 529 36,000  Level Houston Center
Sun 11:09:22 AM 30.9794 -100.4517 287° West 465 535 36,000  Level Houston Center
Sun 11:10:24 AM 31.0156 -100.5950 286° West 464 534 36,000  Level Houston Center
Sun 11:11:26 AM 31.0517 -100.7406 286° West 469 540 36,000  Level Houston Center
Sun 11:12:28 AM 31.0883 -100.8847 287° West 466 536 36,000  Level Houston Center
Sun 11:13:30 AM 31.1311 -101.0583 286° West 467 537 36,000  Level Houston Center
Sun 11:14:32 AM 31.1681 -101.2008 287° West 462 532 36,000  Level Houston Center
Sun 11:15:34 AM 31.2036 -101.3456 286° West 463 533 36,000  Level Houston Center
Sun 11:16:36 AM 31.2394 -101.4903 286° West 465 535 36,000  Level Houston Center
Sun 11:17:38 AM 31.2747 -101.6344 286° West 464 534 36,000  Level Houston Center
Sun 11:18:40 AM 31.3094 -101.7794 286° West 464 534 36,000  Level Houston Center
Sun 11:19:42 AM 31.3517 -101.9539 286° West 464 534 36,000  Level Houston Center
Sun 11:20:44 AM 31.3844 -102.1008 285° West 466 536 36,000  Level Houston Center
Sun 11:21:46 AM 31.4208 -102.2458 286° West 466 536 36,000  Level Houston Center
Sun 11:22:48 AM 31.4572 -102.3906 286° West 466 536 36,000  Level Houston Center
Sun 11:23:50 AM 31.4911 -102.5383 285° West 468 539 36,000  Level Houston Center
Sun 11:24:51 AM 31.5256 -102.6853 285° West 468 539 36,000  Level Houston Center
Sun 11:25:53 AM 31.5675 -102.8611 286° West 468 539 36,000  Level Houston Center
Sun 11:26:55 AM 31.6011 -103.0106 285° West 471 542 36,000  Level Houston Center
Sun 11:27:57 AM 31.6369 -103.1572 286° West 471 542 36,000  Level Houston Center
Sun 11:28:59 AM 31.6700 -103.3056 285° West 470 541 36,000  Level Houston Center
Sun 11:30:02 AM 31.7017 -103.4539 284° West 469 540 36,000  Level Houston Center
Sun 11:31:04 AM 31.7372 -103.6019 286° West 471 542 36,000  Level Houston Center
Sun 11:32:08 AM 31.7742 -103.7653 285° West 468 539 36,000  Level Albuquerque Center
Sun 11:33:10 AM 31.8075 -103.9111 285° West 465 535 36,000  Level Albuquerque Center
Sun 11:34:12 AM 31.8458 -104.0828 285° West 459 528 36,000  Level Albuquerque Center
Sun 11:35:14 AM 31.8783 -104.2267 285° West 458 527 36,000  Level Albuquerque Center
Sun 11:36:16 AM 31.9089 -104.3714 284° West 458 527 36,000  Level Albuquerque Center
Sun 11:37:18 AM 31.9419 -104.5172 285° West 461 531 36,000  Level Albuquerque Center
Sun 11:38:19 AM 31.9722 -104.6614 284° West 459 528 36,000  Level Albuquerque Center
Sun 11:39:21 AM 32.0044 -104.8067 285° West 459 528 36,000  Level Albuquerque Center
Sun 11:40:23 AM 32.0422 -104.9833 284° West 464 534 36,000  Level Albuquerque Center
Sun 11:41:25 AM 32.0739 -105.1306 284° West 465 535 36,000  Level Albuquerque Center
Sun 11:42:27 AM 32.1050 -105.2792 284° West 468 539 36,000  Level Albuquerque Center
Sun 11:43:28 AM 32.1361 -105.4247 284° West 462 532 36,000  Level Albuquerque Center
Sun 11:44:30 AM 32.1667 -105.5736 284° West 469 540 36,000  Level Albuquerque Center
Sun 11:45:32 AM 32.1978 -105.7197 284° West 463 533 36,000  Level Albuquerque Center
Sun 11:46:34 AM 32.2344 -105.8972 284° West 465 535 36,000  Level Albuquerque Center
Sun 11:47:36 AM 32.2642 -106.0433 284° West 461 531 36,000  Level Albuquerque Center
Sun 11:48:38 AM 32.2944 -106.1911 284° West 464 534 36,000 -244 Level Albuquerque Center
Sun 11:49:39 AM 32.3244 -106.3386 284° West 468 539 35,500 -976 Descending Albuquerque Center
Sun 11:50:41 AM 32.3556 -106.4911 284° West 475 547 34,000 -726 Descending Albuquerque Center
Sun 11:51:43 AM 32.3861 -106.6431 283° West 477 549 34,000  Level Albuquerque Center
Sun 11:52:45 AM 32.4233 -106.8289 283° West 485 558 34,000  Level Albuquerque Center
Sun 11:53:47 AM 32.4536 -106.9897 283° West 496 571 34,000  Level Albuquerque Center
Sun 11:54:49 AM 32.4836 -107.1483 283° West 497 572 34,000  Level Albuquerque Center
Sun 11:55:50 AM 32.5150 -107.3058 283° West 494 568 34,000  Level Albuquerque Center
Sun 11:56:52 AM 32.5464 -107.4658 283° West 498 573 34,000  Level Albuquerque Center
Sun 11:57:54 AM 32.5792 -107.6406 283° West 496 571 34,000  Level Albuquerque Center
Sun 11:58:56 AM 32.6094 -107.8000 283° West 496 571 34,000  Level Albuquerque Center
Sun 11:59:58 AM 32.6392 -107.9589 283° West 497 572 34,000 -48 Level Albuquerque Center
Sun 12:01:00 PM 32.6692 -108.1200 283° West 498 573 33,900 -634 Descending Albuquerque Center
Sun 12:02:01 PM 32.6997 -108.2789 283° West 496 571 32,700 -927 Descending Albuquerque Center
Sun 12:03:03 PM 32.7353 -108.4728 282° West 500 575 32,000 -339 Descending Albuquerque Center
Sun 12:04:05 PM 32.7647 -108.6333 282° West 501 577 32,000  Level Albuquerque Center
Sun 12:05:07 PM 32.7939 -108.7981 282° West 511 588 32,000  Level Albuquerque Center
Sun 12:06:09 PM 32.8267 -108.9597 284° West 508 585 32,000  Level Albuquerque Center
Sun 12:07:11 PM 32.8586 -109.1231 283° West 508 585 32,000  Level Albuquerque Center
Sun 12:08:12 PM 32.8864 -109.2842 282° West 502 578 32,000  Level Albuquerque Center
Sun 12:09:14 PM 32.9139 -109.4411 282° West 491 565 32,000  Level Albuquerque Center
Sun 12:10:16 PM 32.9475 -109.6294 282° West 487 560 32,000  Level Albuquerque Center
Sun 12:11:18 PM 32.9758 -109.7869 282° West 488 562 32,000  Level Albuquerque Center
Sun 12:12:20 PM 33.0011 -109.9447 281° West 487 560 32,000  Level Albuquerque Center
Sun 12:13:22 PM 33.0256 -110.1014 281° West 488 562 32,000  Level Albuquerque Center
Sun 12:14:24 PM 33.0531 -110.2569 282° West 483 556 32,000  Level Albuquerque Center
Sun 12:15:26 PM 33.0775 -110.4136 281° West 482 555 32,000  Level Albuquerque Center
Sun 12:16:28 PM 33.1094 -110.6014 282° West 482 555 32,000  Level Albuquerque Center
Sun 12:17:30 PM 33.1356 -110.7581 281° West 481 554 32,000  Level Albuquerque Center
Sun 12:18:32 PM 33.1619 -110.9164 281° West 485 558 32,000  Level Albuquerque Center
Sun 12:19:34 PM 33.1867 -111.0747 281° West 485 558 32,000  Level Albuquerque Center
Sun 12:20:36 PM 33.2125 -111.2325 281° West 484 557 32,000  Level Albuquerque Center
Sun 12:21:38 PM 33.2367 -111.3908 280° West 485 558 32,000  Level Albuquerque Center
Sun 12:22:39 PM 33.2664 -111.5806 281° West 484 557 32,000  Level Albuquerque Center
Sun 12:23:41 PM 33.2908 -111.7406 280° West 486 559 32,000  Level Albuquerque Center
Sun 12:24:43 PM 33.3153 -111.8986 281° West 484 557 32,000  Level Albuquerque Center
Sun 12:25:45 PM 33.3389 -112.0569 280° West 483 556 32,000  Level Albuquerque Center
Sun 12:26:47 PM 33.3636 -112.2150 281° West 481 554 32,000  Level Albuquerque Center
Sun 12:27:50 PM 33.3886 -112.3731 281° West 481 554 32,000  Level Albuquerque Center
Sun 12:28:51 PM 33.4381 -112.5233 292° West 483 556 32,000  Level Albuquerque Center
Sun 12:29:53 PM 33.4908 -112.6969 290° West 484 557 32,000  Level Albuquerque Center
Sun 12:30:55 PM 33.5347 -112.8494 289° West 485 558 32,000  Level Albuquerque Center
Sun 12:31:57 PM 33.5825 -112.9994 291° West 485 558 32,000  Level Albuquerque Center
Sun 12:32:59 PM 33.6300 -113.1500 291° West 486 559 32,000  Level Albuquerque Center
Sun 12:34:01 PM 33.6819 -113.3128 291° West 485 558 32,000  Level Albuquerque Center
Sun 12:35:03 PM 33.7300 -113.4661 291° West 489 563 32,000  Level Albuquerque Center
Sun 12:36:05 PM 33.7764 -113.6178 290° West 486 559 32,000  Level Albuquerque Center
Sun 12:37:07 PM 33.8333 -113.8014 291° West 487 560 32,000  Level Albuquerque Center
Sun 12:38:09 PM 33.8797 -113.9542 290° West 488 562 32,000  Level Albuquerque Center
Sun 12:39:10 PM 33.9272 -114.1053 291° West 485 558 32,000  Level Albuquerque Center
Sun 12:39:43 PM 33.9533 -114.1894 291° West 487 560 32,000  Level Los Angeles Center
Sun 12:40:45 PM 34.0003 -114.3433 290° West 490 564 32,000  Level Los Angeles Center
Sun 12:41:47 PM 34.0467 -114.4956 290° West 488 562 32,000  Level Los Angeles Center
Sun 12:42:49 PM 34.0917 -114.6486 290° West 487 560 32,000  Level Los Angeles Center
Sun 12:43:51 PM 34.1056 -114.8406 275° West 485 558 32,000  Level Los Angeles Center
Sun 12:44:53 PM 34.1075 -114.9975 271° West 474 545 32,000  Level Los Angeles Center
Sun 12:45:55 PM 34.1089 -115.1578 271° West 477 549 32,000  Level Los Angeles Center
Sun 12:46:58 PM 34.1108 -115.3175 271° West 479 551 32,000  Level Los Angeles Center
Sun 12:48:00 PM 34.1117 -115.4767 270° West 478 550 32,000  Level Los Angeles Center
Sun 12:49:02 PM 34.1117 -115.6683 270° West 479 551 32,000  Level Los Angeles Center
Sun 12:50:04 PM 34.1053 -115.8258 267° West 474 545 32,000  Level Los Angeles Center
Sun 12:51:06 PM 34.0817 -115.9786 259° West 468 539 32,000 -823 Level Los Angeles Center
Sun 12:52:08 PM 34.0581 -116.1325 260° West 469 540 30,300 -1,839 Descending Los Angeles Center
Sun 12:53:10 PM 34.0356 -116.2839 260° West 464 534 28,200 -1,887 Descending Los Angeles Center
Sun 12:54:12 PM 34.0136 -116.4306 260° West 452 520 26,400 -1,887 Descending Los Angeles Center
Sun 12:55:14 PM 33.9967 -116.5967 263° West 423 487 24,300 -2,032 Descending Los Angeles Center
Sun 12:56:16 PM 33.9856 -116.7311 264° West 410 472 22,200 -1,872 Descending Los Angeles Center
Sun 12:57:19 PM 33.9758 -116.8611 265° West 397 457 20,400 -1,794 Descending Los Angeles Center
Sun 12:58:03 PM 33.9667 -116.9667 264° West 376 433 19,000 -1,846 Descending Southern California TRACON
Sun 12:59:03 PM 33.9500 -117.1000 261° West 372 428 17,200 -1,550 Descending Southern California TRACON
Sun 01:00:03 PM 33.9500 -117.2167 270° West 368 423 15,900 -1,438 Descending Southern California TRACON
Sun 01:01:04 PM 33.9333 -117.3333 260° West 362 417 14,300 -1,636 Descending Southern California TRACON
Sun 01:02:04 PM 33.9667 -117.4500 289° West 354 407 12,600 -1,650 Descending Southern California TRACON
Sun 01:03:04 PM 34.0000 -117.5667 289° West 339 390 11,000 -1,200 Descending Southern California TRACON
Sun 01:04:04 PM 34.0167 -117.6667 281° West 342 394 10,200 -950 Descending Southern California TRACON
Sun 01:05:04 PM 34.0000 -117.7500 256° West 282 325 9,100 -1,250 Descending Southern California TRACON
Sun 01:06:04 PM 33.9833 -117.8500 259° West 281 323 7,700 -1,300 Descending Southern California TRACON
Sun 01:07:04 PM 33.9833 -117.9500 270° West 276 318 6,500 -1,100 Descending Southern California TRACON
Sun 01:08:04 PM 33.9667 -118.0333 256° West 259 298 5,500 -950 Descending Southern California TRACON
Sun 01:09:04 PM 33.9667 -118.1167 270° West 243 280 4,600 -900 Descending Southern California TRACON

Login

Don't have an account? Register now (free) for customized features, flight alerts, and more!